sensor_id;sensor_type;location;lat;lon;timestamp;P1;durP1;ratioP1;P2;durP2;ratioP2
77868;SDS011;67231;59.144;37.934;2023-07-09T00:04:16;29.27;;;9.57;;
77868;SDS011;67231;59.144;37.934;2023-07-09T00:06:43;23.65;;;9.25;;
77868;SDS011;67231;59.144;37.934;2023-07-09T00:09:19;24.15;;;10.13;;
77868;SDS011;67231;59.144;37.934;2023-07-09T00:11:47;21.50;;;9.35;;
77868;SDS011;67231;59.144;37.934;2023-07-09T00:14:15;20.40;;;9.15;;
77868;SDS011;67231;59.144;37.934;2023-07-09T00:16:43;20.92;;;9.38;;
77868;SDS011;67231;59.144;37.934;2023-07-09T00:19:14;21.00;;;9.50;;
77868;SDS011;67231;59.144;37.934;2023-07-09T00:24:13;15.35;;;8.00;;
77868;SDS011;67231;59.144;37.934;2023-07-09T00:26:40;16.48;;;8.45;;
77868;SDS011;67231;59.144;37.934;2023-07-09T00:29:08;22.55;;;9.32;;
77868;SDS011;67231;59.144;37.934;2023-07-09T00:31:37;25.52;;;10.95;;
77868;SDS011;67231;59.144;37.934;2023-07-09T00:34:10;28.58;;;11.13;;
77868;SDS011;67231;59.144;37.934;2023-07-09T00:36:40;30.55;;;10.68;;
77868;SDS011;67231;59.144;37.934;2023-07-09T00:39:14;28.88;;;10.82;;
77868;SDS011;67231;59.144;37.934;2023-07-09T00:41:44;24.67;;;10.18;;
77868;SDS011;67231;59.144;37.934;2023-07-09T00:44:23;25.88;;;10.18;;
77868;SDS011;67231;59.144;37.934;2023-07-09T00:51:54;25.45;;;10.13;;
77868;SDS011;67231;59.144;37.934;2023-07-09T00:54:37;25.25;;;9.75;;
77868;SDS011;67231;59.144;37.934;2023-07-09T00:57:12;29.55;;;10.27;;
77868;SDS011;67231;59.144;37.934;2023-07-09T00:59:48;21.13;;;9.73;;
77868;SDS011;67231;59.144;37.934;2023-07-09T01:02:23;22.58;;;10.80;;
77868;SDS011;67231;59.144;37.934;2023-07-09T01:04:51;24.33;;;11.75;;
77868;SDS011;67231;59.144;37.934;2023-07-09T01:07:27;27.70;;;11.60;;
77868;SDS011;67231;59.144;37.934;2023-07-09T01:09:55;22.58;;;11.07;;
77868;SDS011;67231;59.144;37.934;2023-07-09T01:12:21;28.98;;;11.13;;
77868;SDS011;67231;59.144;37.934;2023-07-09T01:14:49;30.50;;;12.05;;
77868;SDS011;67231;59.144;37.934;2023-07-09T01:17:19;29.50;;;12.30;;
77868;SDS011;67231;59.144;37.934;2023-07-09T01:19:49;29.65;;;11.85;;
77868;SDS011;67231;59.144;37.934;2023-07-09T01:22:17;30.27;;;13.45;;
77868;SDS011;67231;59.144;37.934;2023-07-09T01:27:40;43.63;;;21.98;;
77868;SDS011;67231;59.144;37.934;2023-07-09T01:30:13;52.88;;;24.63;;
77868;SDS011;67231;59.144;37.934;2023-07-09T01:32:42;49.35;;;23.63;;
77868;SDS011;67231;59.144;37.934;2023-07-09T01:35:13;39.15;;;20.38;;
77868;SDS011;67231;59.144;37.934;2023-07-09T01:37:41;32.55;;;16.33;;
77868;SDS011;67231;59.144;37.934;2023-07-09T01:40:09;18.92;;;10.50;;
77868;SDS011;67231;59.144;37.934;2023-07-09T01:42:38;15.68;;;8.60;;
77868;SDS011;67231;59.144;37.934;2023-07-09T01:45:06;19.15;;;8.30;;
77868;SDS011;67231;59.144;37.934;2023-07-09T01:47:36;13.50;;;6.63;;
77868;SDS011;67231;59.144;37.934;2023-07-09T01:50:04;11.40;;;6.10;;
77868;SDS011;67231;59.144;37.934;2023-07-09T01:52:32;12.98;;;5.95;;
77868;SDS011;67231;59.144;37.934;2023-07-09T01:55:02;16.17;;;6.18;;
77868;SDS011;67231;59.144;37.934;2023-07-09T01:57:32;10.85;;;5.70;;
77868;SDS011;67231;59.144;37.934;2023-07-09T02:00:08;13.82;;;5.20;;
77868;SDS011;67231;59.144;37.934;2023-07-09T02:02:41;12.07;;;5.03;;
77868;SDS011;67231;59.144;37.934;2023-07-09T02:05:13;15.43;;;6.03;;
77868;SDS011;67231;59.144;37.934;2023-07-09T02:07:42;15.95;;;6.90;;
77868;SDS011;67231;59.144;37.934;2023-07-09T02:10:12;13.27;;;7.28;;
77868;SDS011;67231;59.144;37.934;2023-07-09T02:12:39;20.15;;;10.93;;
77868;SDS011;67231;59.144;37.934;2023-07-09T02:15:06;24.52;;;11.57;;
77868;SDS011;67231;59.144;37.934;2023-07-09T02:17:33;26.05;;;12.02;;
77868;SDS011;67231;59.144;37.934;2023-07-09T02:20:00;26.17;;;13.57;;
77868;SDS011;67231;59.144;37.934;2023-07-09T02:22:26;23.65;;;12.10;;
77868;SDS011;67231;59.144;37.934;2023-07-09T02:24:53;25.75;;;13.73;;
77868;SDS011;67231;59.144;37.934;2023-07-09T02:27:20;17.00;;;10.18;;
77868;SDS011;67231;59.144;37.934;2023-07-09T02:29:47;15.43;;;9.07;;
77868;SDS011;67231;59.144;37.934;2023-07-09T02:32:17;12.50;;;8.23;;
77868;SDS011;67231;59.144;37.934;2023-07-09T02:34:47;13.63;;;7.03;;
77868;SDS011;67231;59.144;37.934;2023-07-09T02:37:20;10.07;;;5.38;;
77868;SDS011;67231;59.144;37.934;2023-07-09T02:39:48;9.60;;;5.38;;
77868;SDS011;67231;59.144;37.934;2023-07-09T02:42:16;9.00;;;5.20;;
77868;SDS011;67231;59.144;37.934;2023-07-09T02:44:46;9.20;;;5.45;;
77868;SDS011;67231;59.144;37.934;2023-07-09T02:47:13;11.02;;;5.60;;
77868;SDS011;67231;59.144;37.934;2023-07-09T02:49:40;9.25;;;5.95;;
77868;SDS011;67231;59.144;37.934;2023-07-09T02:52:07;16.30;;;7.15;;
77868;SDS011;67231;59.144;37.934;2023-07-09T02:54:33;13.80;;;7.45;;
77868;SDS011;67231;59.144;37.934;2023-07-09T02:57:00;12.65;;;6.95;;
77868;SDS011;67231;59.144;37.934;2023-07-09T02:59:26;12.25;;;7.15;;
77868;SDS011;67231;59.144;37.934;2023-07-09T03:01:55;11.77;;;6.68;;
77868;SDS011;67231;59.144;37.934;2023-07-09T03:04:22;8.55;;;5.47;;
77868;SDS011;67231;59.144;37.934;2023-07-09T03:06:48;8.60;;;4.43;;
77868;SDS011;67231;59.144;37.934;2023-07-09T03:09:15;7.65;;;4.32;;
77868;SDS011;67231;59.144;37.934;2023-07-09T03:11:41;9.75;;;5.50;;
77868;SDS011;67231;59.144;37.934;2023-07-09T03:14:08;8.75;;;5.80;;
77868;SDS011;67231;59.144;37.934;2023-07-09T03:16:34;8.75;;;5.30;;
77868;SDS011;67231;59.144;37.934;2023-07-09T03:19:00;9.77;;;6.40;;
77868;SDS011;67231;59.144;37.934;2023-07-09T03:21:27;10.13;;;5.03;;
77868;SDS011;67231;59.144;37.934;2023-07-09T03:23:54;7.15;;;4.40;;
77868;SDS011;67231;59.144;37.934;2023-07-09T03:26:21;8.40;;;3.83;;
77868;SDS011;67231;59.144;37.934;2023-07-09T03:28:47;8.02;;;3.92;;
77868;SDS011;67231;59.144;37.934;2023-07-09T03:31:14;6.93;;;3.60;;
77868;SDS011;67231;59.144;37.934;2023-07-09T03:33:40;4.80;;;3.92;;
77868;SDS011;67231;59.144;37.934;2023-07-09T03:36:07;5.80;;;3.78;;
77868;SDS011;67231;59.144;37.934;2023-07-09T03:38:33;5.40;;;3.50;;
77868;SDS011;67231;59.144;37.934;2023-07-09T03:40:59;7.18;;;3.60;;
77868;SDS011;67231;59.144;37.934;2023-07-09T03:43:25;7.93;;;4.05;;
77868;SDS011;67231;59.144;37.934;2023-07-09T03:45:52;6.15;;;3.60;;
77868;SDS011;67231;59.144;37.934;2023-07-09T03:48:18;7.05;;;3.92;;
77868;SDS011;67231;59.144;37.934;2023-07-09T03:50:46;6.68;;;4.20;;
77868;SDS011;67231;59.144;37.934;2023-07-09T03:53:13;6.18;;;3.53;;
77868;SDS011;67231;59.144;37.934;2023-07-09T03:55:41;5.03;;;3.90;;
77868;SDS011;67231;59.144;37.934;2023-07-09T03:58:08;4.35;;;3.25;;
77868;SDS011;67231;59.144;37.934;2023-07-09T04:00:35;7.15;;;4.53;;
77868;SDS011;67231;59.144;37.934;2023-07-09T04:03:01;7.25;;;4.15;;
77868;SDS011;67231;59.144;37.934;2023-07-09T04:05:27;5.95;;;3.90;;
77868;SDS011;67231;59.144;37.934;2023-07-09T04:07:54;5.88;;;3.95;;
77868;SDS011;67231;59.144;37.934;2023-07-09T04:10:20;5.47;;;3.80;;
77868;SDS011;67231;59.144;37.934;2023-07-09T04:12:47;6.65;;;3.95;;
77868;SDS011;67231;59.144;37.934;2023-07-09T04:15:13;5.80;;;3.90;;
77868;SDS011;67231;59.144;37.934;2023-07-09T04:17:40;5.47;;;3.75;;
77868;SDS011;67231;59.144;37.934;2023-07-09T04:20:08;6.22;;;3.90;;
77868;SDS011;67231;59.144;37.934;2023-07-09T04:22:36;5.80;;;3.92;;
77868;SDS011;67231;59.144;37.934;2023-07-09T04:25:04;6.10;;;3.83;;
77868;SDS011;67231;59.144;37.934;2023-07-09T04:27:33;8.07;;;4.43;;
77868;SDS011;67231;59.144;37.934;2023-07-09T04:30:00;6.18;;;3.92;;
77868;SDS011;67231;59.144;37.934;2023-07-09T04:32:27;5.03;;;3.97;;
77868;SDS011;67231;59.144;37.934;2023-07-09T04:34:54;5.80;;;3.75;;
77868;SDS011;67231;59.144;37.934;2023-07-09T04:37:20;7.10;;;3.25;;
77868;SDS011;67231;59.144;37.934;2023-07-09T04:39:46;5.80;;;4.10;;
77868;SDS011;67231;59.144;37.934;2023-07-09T04:42:14;5.47;;;3.70;;
77868;SDS011;67231;59.144;37.934;2023-07-09T04:44:42;6.93;;;4.30;;
77868;SDS011;67231;59.144;37.934;2023-07-09T04:47:10;8.73;;;3.97;;
77868;SDS011;67231;59.144;37.934;2023-07-09T04:49:38;5.63;;;3.70;;
77868;SDS011;67231;59.144;37.934;2023-07-09T04:52:05;6.15;;;3.72;;
77868;SDS011;67231;59.144;37.934;2023-07-09T04:54:32;6.05;;;3.75;;
77868;SDS011;67231;59.144;37.934;2023-07-09T04:56:59;6.80;;;3.95;;
77868;SDS011;67231;59.144;37.934;2023-07-09T04:59:25;6.32;;;3.70;;
77868;SDS011;67231;59.144;37.934;2023-07-09T05:01:51;7.18;;;3.72;;
77868;SDS011;67231;59.144;37.934;2023-07-09T05:04:17;5.40;;;3.42;;
77868;SDS011;67231;59.144;37.934;2023-07-09T05:06:43;4.82;;;3.50;;
77868;SDS011;67231;59.144;37.934;2023-07-09T05:09:10;5.78;;;3.80;;
77868;SDS011;67231;59.144;37.934;2023-07-09T05:11:36;6.45;;;4.15;;
77868;SDS011;67231;59.144;37.934;2023-07-09T05:14:03;4.13;;;3.20;;
77868;SDS011;67231;59.144;37.934;2023-07-09T05:16:29;5.72;;;3.53;;
77868;SDS011;67231;59.144;37.934;2023-07-09T05:18:56;4.38;;;3.38;;
77868;SDS011;67231;59.144;37.934;2023-07-09T05:21:22;6.97;;;3.55;;
77868;SDS011;67231;59.144;37.934;2023-07-09T05:23:48;4.28;;;3.15;;
77868;SDS011;67231;59.144;37.934;2023-07-09T05:26:14;7.20;;;3.33;;
77868;SDS011;67231;59.144;37.934;2023-07-09T05:28:41;4.88;;;3.38;;
77868;SDS011;67231;59.144;37.934;2023-07-09T05:31:07;5.00;;;3.17;;
77868;SDS011;67231;59.144;37.934;2023-07-09T05:33:33;5.35;;;3.10;;
77868;SDS011;67231;59.144;37.934;2023-07-09T05:35:59;4.47;;;2.75;;
77868;SDS011;67231;59.144;37.934;2023-07-09T05:38:27;7.03;;;3.00;;
77868;SDS011;67231;59.144;37.934;2023-07-09T05:41:00;5.03;;;2.97;;
77868;SDS011;67231;59.144;37.934;2023-07-09T05:43:28;10.10;;;3.60;;
77868;SDS011;67231;59.144;37.934;2023-07-09T05:45:55;4.95;;;2.88;;
77868;SDS011;67231;59.144;37.934;2023-07-09T05:48:21;5.15;;;3.00;;
77868;SDS011;67231;59.144;37.934;2023-07-09T05:50:48;6.55;;;3.30;;
77868;SDS011;67231;59.144;37.934;2023-07-09T05:53:21;4.05;;;2.80;;
77868;SDS011;67231;59.144;37.934;2023-07-09T05:55:48;4.57;;;3.20;;
77868;SDS011;67231;59.144;37.934;2023-07-09T05:58:14;5.60;;;3.50;;
77868;SDS011;67231;59.144;37.934;2023-07-09T06:00:40;5.25;;;2.97;;
77868;SDS011;67231;59.144;37.934;2023-07-09T06:03:07;4.90;;;2.90;;
77868;SDS011;67231;59.144;37.934;2023-07-09T06:05:34;6.32;;;3.00;;
77868;SDS011;67231;59.144;37.934;2023-07-09T06:08:00;5.90;;;3.10;;
77868;SDS011;67231;59.144;37.934;2023-07-09T06:10:27;5.82;;;3.08;;
77868;SDS011;67231;59.144;37.934;2023-07-09T06:12:53;7.15;;;2.85;;
77868;SDS011;67231;59.144;37.934;2023-07-09T06:15:19;3.72;;;2.80;;
77868;SDS011;67231;59.144;37.934;2023-07-09T06:17:46;5.53;;;2.70;;
77868;SDS011;67231;59.144;37.934;2023-07-09T06:20:13;4.35;;;2.60;;
77868;SDS011;67231;59.144;37.934;2023-07-09T06:22:39;4.63;;;3.00;;
77868;SDS011;67231;59.144;37.934;2023-07-09T06:25:06;5.85;;;3.20;;
77868;SDS011;67231;59.144;37.934;2023-07-09T06:27:32;7.43;;;4.00;;
77868;SDS011;67231;59.144;37.934;2023-07-09T06:29:58;5.90;;;3.80;;
77868;SDS011;67231;59.144;37.934;2023-07-09T06:32:25;6.25;;;3.40;;
77868;SDS011;67231;59.144;37.934;2023-07-09T06:34:51;5.40;;;2.95;;
77868;SDS011;67231;59.144;37.934;2023-07-09T06:37:18;7.07;;;3.17;;
77868;SDS011;67231;59.144;37.934;2023-07-09T06:39:44;4.90;;;3.38;;
77868;SDS011;67231;59.144;37.934;2023-07-09T06:42:10;5.18;;;3.10;;
77868;SDS011;67231;59.144;37.934;2023-07-09T06:47:30;4.85;;;3.20;;
77868;SDS011;67231;59.144;37.934;2023-07-09T06:49:56;5.65;;;3.42;;
77868;SDS011;67231;59.144;37.934;2023-07-09T06:52:23;4.65;;;3.03;;
77868;SDS011;67231;59.144;37.934;2023-07-09T06:54:49;6.00;;;3.30;;
77868;SDS011;67231;59.144;37.934;2023-07-09T06:57:15;5.43;;;3.13;;
77868;SDS011;67231;59.144;37.934;2023-07-09T06:59:41;7.80;;;3.20;;
77868;SDS011;67231;59.144;37.934;2023-07-09T07:02:08;4.57;;;3.17;;
77868;SDS011;67231;59.144;37.934;2023-07-09T07:04:34;5.07;;;3.63;;
77868;SDS011;67231;59.144;37.934;2023-07-09T07:07:00;6.25;;;3.35;;
77868;SDS011;67231;59.144;37.934;2023-07-09T07:09:27;6.15;;;4.15;;
77868;SDS011;67231;59.144;37.934;2023-07-09T07:11:53;4.50;;;3.03;;
77868;SDS011;67231;59.144;37.934;2023-07-09T07:14:19;4.82;;;3.22;;
77868;SDS011;67231;59.144;37.934;2023-07-09T07:16:46;6.28;;;2.80;;
77868;SDS011;67231;59.144;37.934;2023-07-09T07:19:12;6.50;;;3.20;;
77868;SDS011;67231;59.144;37.934;2023-07-09T07:21:38;4.97;;;2.80;;
77868;SDS011;67231;59.144;37.934;2023-07-09T07:24:05;7.63;;;3.10;;
77868;SDS011;67231;59.144;37.934;2023-07-09T07:26:31;6.60;;;3.38;;
77868;SDS011;67231;59.144;37.934;2023-07-09T07:28:57;7.80;;;3.72;;
77868;SDS011;67231;59.144;37.934;2023-07-09T07:31:24;5.25;;;3.17;;
77868;SDS011;67231;59.144;37.934;2023-07-09T07:33:51;6.70;;;3.58;;
77868;SDS011;67231;59.144;37.934;2023-07-09T07:36:17;4.78;;;3.70;;
77868;SDS011;67231;59.144;37.934;2023-07-09T07:38:43;5.57;;;3.78;;
77868;SDS011;67231;59.144;37.934;2023-07-09T07:41:10;5.50;;;3.90;;
77868;SDS011;67231;59.144;37.934;2023-07-09T07:43:36;4.45;;;3.50;;
77868;SDS011;67231;59.144;37.934;2023-07-09T07:46:03;7.78;;;5.60;;
77868;SDS011;67231;59.144;37.934;2023-07-09T07:48:29;6.32;;;4.28;;
77868;SDS011;67231;59.144;37.934;2023-07-09T07:50:59;4.38;;;3.28;;
77868;SDS011;67231;59.144;37.934;2023-07-09T07:53:27;4.95;;;3.55;;
77868;SDS011;67231;59.144;37.934;2023-07-09T07:55:56;6.68;;;4.72;;
77868;SDS011;67231;59.144;37.934;2023-07-09T07:58:23;7.10;;;4.00;;
77868;SDS011;67231;59.144;37.934;2023-07-09T08:00:49;4.68;;;3.47;;
77868;SDS011;67231;59.144;37.934;2023-07-09T08:03:20;8.35;;;3.75;;
77868;SDS011;67231;59.144;37.934;2023-07-09T08:05:49;5.30;;;3.60;;
77868;SDS011;67231;59.144;37.934;2023-07-09T08:08:16;4.00;;;3.00;;
77868;SDS011;67231;59.144;37.934;2023-07-09T08:10:43;5.25;;;3.00;;
77868;SDS011;67231;59.144;37.934;2023-07-09T08:13:10;6.30;;;3.20;;
77868;SDS011;67231;59.144;37.934;2023-07-09T08:15:36;4.88;;;2.92;;
77868;SDS011;67231;59.144;37.934;2023-07-09T08:18:02;4.25;;;3.20;;
77868;SDS011;67231;59.144;37.934;2023-07-09T08:20:28;4.53;;;3.22;;
77868;SDS011;67231;59.144;37.934;2023-07-09T08:22:54;4.03;;;3.15;;
77868;SDS011;67231;59.144;37.934;2023-07-09T08:25:21;3.78;;;3.10;;
77868;SDS011;67231;59.144;37.934;2023-07-09T08:27:47;3.97;;;3.17;;
77868;SDS011;67231;59.144;37.934;2023-07-09T08:30:13;4.65;;;3.65;;
77868;SDS011;67231;59.144;37.934;2023-07-09T08:32:40;5.05;;;3.45;;
77868;SDS011;67231;59.144;37.934;2023-07-09T08:35:06;4.53;;;3.10;;
77868;SDS011;67231;59.144;37.934;2023-07-09T08:37:33;5.82;;;3.38;;
77868;SDS011;67231;59.144;37.934;2023-07-09T08:39:59;8.93;;;3.00;;
77868;SDS011;67231;59.144;37.934;2023-07-09T08:42:29;4.90;;;3.35;;
77868;SDS011;67231;59.144;37.934;2023-07-09T08:45:15;4.70;;;3.42;;
77868;SDS011;67231;59.144;37.934;2023-07-09T08:48:03;6.30;;;3.63;;
77868;SDS011;67231;59.144;37.934;2023-07-09T08:52:58;8.35;;;3.85;;
77868;SDS011;67231;59.144;37.934;2023-07-09T08:55:27;6.10;;;2.90;;
77868;SDS011;67231;59.144;37.934;2023-07-09T08:58:00;6.28;;;3.30;;
77868;SDS011;67231;59.144;37.934;2023-07-09T09:00:31;5.50;;;3.20;;
77868;SDS011;67231;59.144;37.934;2023-07-09T09:03:10;5.85;;;3.17;;
77868;SDS011;67231;59.144;37.934;2023-07-09T09:05:42;4.75;;;3.00;;
77868;SDS011;67231;59.144;37.934;2023-07-09T09:08:19;4.35;;;2.95;;
77868;SDS011;67231;59.144;37.934;2023-07-09T09:13:55;4.45;;;2.70;;
77868;SDS011;67231;59.144;37.934;2023-07-09T09:16:26;6.75;;;2.80;;
77868;SDS011;67231;59.144;37.934;2023-07-09T09:18:58;5.95;;;2.75;;
77868;SDS011;67231;59.144;37.934;2023-07-09T09:24:12;4.10;;;2.40;;
77868;SDS011;67231;59.144;37.934;2023-07-09T09:26:43;5.50;;;2.90;;
77868;SDS011;67231;59.144;37.934;2023-07-09T09:29:15;4.18;;;2.92;;
77868;SDS011;67231;59.144;37.934;2023-07-09T09:31:43;5.15;;;3.35;;
77868;SDS011;67231;59.144;37.934;2023-07-09T09:34:18;7.65;;;2.72;;
77868;SDS011;67231;59.144;37.934;2023-07-09T09:36:47;4.18;;;2.80;;
77868;SDS011;67231;59.144;37.934;2023-07-09T09:39:14;4.18;;;2.50;;
77868;SDS011;67231;59.144;37.934;2023-07-09T09:41:40;3.95;;;2.90;;
77868;SDS011;67231;59.144;37.934;2023-07-09T09:44:42;4.60;;;2.45;;
77868;SDS011;67231;59.144;37.934;2023-07-09T09:47:00;10.02;;;2.95;;
77868;SDS011;67231;59.144;37.934;2023-07-09T09:49:27;4.10;;;2.70;;
77868;SDS011;67231;59.144;37.934;2023-07-09T09:51:53;4.20;;;2.30;;
77868;SDS011;67231;59.144;37.934;2023-07-09T09:54:24;6.63;;;2.63;;
77868;SDS011;67231;59.144;37.934;2023-07-09T09:56:53;3.70;;;2.60;;
77868;SDS011;67231;59.144;37.934;2023-07-09T09:59:21;8.30;;;2.78;;
77868;SDS011;67231;59.144;37.934;2023-07-09T10:01:57;6.30;;;2.70;;
77868;SDS011;67231;59.144;37.934;2023-07-09T10:04:25;10.75;;;2.65;;
77868;SDS011;67231;59.144;37.934;2023-07-09T10:06:54;3.90;;;2.33;;
77868;SDS011;67231;59.144;37.934;2023-07-09T10:09:26;4.40;;;2.55;;
77868;SDS011;67231;59.144;37.934;2023-07-09T10:15:08;4.03;;;2.38;;
77868;SDS011;67231;59.144;37.934;2023-07-09T10:17:54;3.35;;;2.10;;
77868;SDS011;67231;59.144;37.934;2023-07-09T10:20:37;3.08;;;2.20;;
77868;SDS011;67231;59.144;37.934;2023-07-09T10:25:53;3.60;;;2.55;;
77868;SDS011;67231;59.144;37.934;2023-07-09T10:34:10;3.92;;;2.30;;
77868;SDS011;67231;59.144;37.934;2023-07-09T10:39:46;4.57;;;2.50;;
77868;SDS011;67231;59.144;37.934;2023-07-09T10:42:57;3.60;;;2.35;;
77868;SDS011;67231;59.144;37.934;2023-07-09T10:45:20;4.90;;;2.80;;
77868;SDS011;67231;59.144;37.934;2023-07-09T10:47:59;3.67;;;2.05;;
77868;SDS011;67231;59.144;37.934;2023-07-09T10:50:33;3.90;;;2.00;;
77868;SDS011;67231;59.144;37.934;2023-07-09T10:53:14;3.22;;;2.10;;
77868;SDS011;67231;59.144;37.934;2023-07-09T10:58:24;4.00;;;2.08;;
77868;SDS011;67231;59.144;37.934;2023-07-09T11:00:55;4.53;;;2.25;;
77868;SDS011;67231;59.144;37.934;2023-07-09T11:03:33;5.10;;;2.88;;
77868;SDS011;67231;59.144;37.934;2023-07-09T11:06:08;3.22;;;2.15;;
77868;SDS011;67231;59.144;37.934;2023-07-09T11:08:48;2.55;;;1.85;;
77868;SDS011;67231;59.144;37.934;2023-07-09T11:11:38;3.38;;;2.10;;
77868;SDS011;67231;59.144;37.934;2023-07-09T11:14:19;2.95;;;2.10;;
77868;SDS011;67231;59.144;37.934;2023-07-09T11:16:58;3.25;;;2.10;;
77868;SDS011;67231;59.144;37.934;2023-07-09T11:19:27;3.35;;;2.00;;
77868;SDS011;67231;59.144;37.934;2023-07-09T11:27:21;2.78;;;1.85;;
77868;SDS011;67231;59.144;37.934;2023-07-09T11:29:48;4.03;;;1.75;;
77868;SDS011;67231;59.144;37.934;2023-07-09T11:32:23;4.47;;;1.70;;
77868;SDS011;67231;59.144;37.934;2023-07-09T11:34:49;5.47;;;2.15;;
77868;SDS011;67231;59.144;37.934;2023-07-09T11:37:16;4.30;;;2.70;;
77868;SDS011;67231;59.144;37.934;2023-07-09T11:39:46;3.67;;;1.70;;
77868;SDS011;67231;59.144;37.934;2023-07-09T11:42:24;5.35;;;2.50;;
77868;SDS011;67231;59.144;37.934;2023-07-09T11:44:51;3.40;;;2.08;;
77868;SDS011;67231;59.144;37.934;2023-07-09T11:49:56;5.00;;;1.75;;
77868;SDS011;67231;59.144;37.934;2023-07-09T11:55:33;2.13;;;1.60;;
77868;SDS011;67231;59.144;37.934;2023-07-09T11:58:08;5.68;;;1.70;;
77868;SDS011;67231;59.144;37.934;2023-07-09T12:00:48;4.13;;;1.80;;
77868;SDS011;67231;59.144;37.934;2023-07-09T12:03:23;3.70;;;1.70;;
77868;SDS011;67231;59.144;37.934;2023-07-09T12:05:53;2.42;;;1.58;;
77868;SDS011;67231;59.144;37.934;2023-07-09T12:10:52;2.53;;;1.60;;
77868;SDS011;67231;59.144;37.934;2023-07-09T12:13:19;6.85;;;2.28;;
77868;SDS011;67231;59.144;37.934;2023-07-09T12:15:46;2.15;;;1.40;;
77868;SDS011;67231;59.144;37.934;2023-07-09T12:18:13;2.60;;;1.48;;
77868;SDS011;67231;59.144;37.934;2023-07-09T12:20:41;2.80;;;1.50;;
77868;SDS011;67231;59.144;37.934;2023-07-09T12:25:50;2.28;;;1.50;;
77868;SDS011;67231;59.144;37.934;2023-07-09T12:28:18;2.88;;;1.48;;
77868;SDS011;67231;59.144;37.934;2023-07-09T12:30:49;2.95;;;1.70;;
77868;SDS011;67231;59.144;37.934;2023-07-09T12:33:18;4.25;;;2.28;;
77868;SDS011;67231;59.144;37.934;2023-07-09T12:35:48;2.92;;;1.70;;
77868;SDS011;67231;59.144;37.934;2023-07-09T12:38:19;2.25;;;1.60;;
77868;SDS011;67231;59.144;37.934;2023-07-09T12:40:50;2.50;;;1.55;;
77868;SDS011;67231;59.144;37.934;2023-07-09T12:43:28;3.90;;;1.80;;
77868;SDS011;67231;59.144;37.934;2023-07-09T12:46:00;2.20;;;1.60;;
77868;SDS011;67231;59.144;37.934;2023-07-09T12:48:28;14.45;;;4.57;;
77868;SDS011;67231;59.144;37.934;2023-07-09T12:50:59;4.43;;;1.52;;
77868;SDS011;67231;59.144;37.934;2023-07-09T12:53:26;6.07;;;2.58;;
77868;SDS011;67231;59.144;37.934;2023-07-09T12:55:55;4.22;;;1.60;;
77868;SDS011;67231;59.144;37.934;2023-07-09T12:58:36;2.25;;;1.40;;
77868;SDS011;67231;59.144;37.934;2023-07-09T13:01:07;7.22;;;2.80;;
77868;SDS011;67231;59.144;37.934;2023-07-09T13:03:40;2.13;;;1.42;;
77868;SDS011;67231;59.144;37.934;2023-07-09T13:06:20;3.60;;;1.30;;
77868;SDS011;67231;59.144;37.934;2023-07-09T13:08:58;1.70;;;1.00;;
77868;SDS011;67231;59.144;37.934;2023-07-09T13:11:31;2.95;;;1.20;;
77868;SDS011;67231;59.144;37.934;2023-07-09T13:14:02;6.47;;;2.28;;
77868;SDS011;67231;59.144;37.934;2023-07-09T13:16:30;2.15;;;1.42;;
77868;SDS011;67231;59.144;37.934;2023-07-09T13:19:05;3.42;;;2.00;;
77868;SDS011;67231;59.144;37.934;2023-07-09T13:21:31;1.90;;;1.00;;
77868;SDS011;67231;59.144;37.934;2023-07-09T13:23:58;2.70;;;1.00;;
77868;SDS011;67231;59.144;37.934;2023-07-09T13:26:24;3.13;;;1.15;;
77868;SDS011;67231;59.144;37.934;2023-07-09T13:28:51;3.63;;;1.20;;
77868;SDS011;67231;59.144;37.934;2023-07-09T13:31:18;1.98;;;1.10;;
77868;SDS011;67231;59.144;37.934;2023-07-09T13:33:53;1.60;;;1.02;;
77868;SDS011;67231;59.144;37.934;2023-07-09T13:36:22;2.20;;;1.20;;
77868;SDS011;67231;59.144;37.934;2023-07-09T13:38:49;5.47;;;1.27;;
77868;SDS011;67231;59.144;37.934;2023-07-09T13:41:17;4.03;;;1.30;;
77868;SDS011;67231;59.144;37.934;2023-07-09T13:43:48;2.50;;;1.10;;
77868;SDS011;67231;59.144;37.934;2023-07-09T13:46:15;1.95;;;1.25;;
77868;SDS011;67231;59.144;37.934;2023-07-09T13:48:42;5.50;;;1.33;;
77868;SDS011;67231;59.144;37.934;2023-07-09T13:51:23;3.78;;;1.20;;
77868;SDS011;67231;59.144;37.934;2023-07-09T13:53:50;1.23;;;0.75;;
77868;SDS011;67231;59.144;37.934;2023-07-09T13:58:45;2.42;;;1.13;;
77868;SDS011;67231;59.144;37.934;2023-07-09T14:01:13;2.42;;;1.20;;
77868;SDS011;67231;59.144;37.934;2023-07-09T14:03:41;2.45;;;1.10;;
77868;SDS011;67231;59.144;37.934;2023-07-09T14:06:09;2.13;;;1.10;;
77868;SDS011;67231;59.144;37.934;2023-07-09T14:08:38;2.20;;;0.95;;
77868;SDS011;67231;59.144;37.934;2023-07-09T14:11:12;6.60;;;1.60;;
77868;SDS011;67231;59.144;37.934;2023-07-09T14:13:40;6.20;;;1.83;;
77868;SDS011;67231;59.144;37.934;2023-07-09T14:16:10;4.80;;;1.60;;
77868;SDS011;67231;59.144;37.934;2023-07-09T14:18:38;2.35;;;1.10;;
77868;SDS011;67231;59.144;37.934;2023-07-09T14:21:14;4.47;;;1.40;;
77868;SDS011;67231;59.144;37.934;2023-07-09T14:23:43;5.30;;;1.30;;
77868;SDS011;67231;59.144;37.934;2023-07-09T14:26:10;2.00;;;1.20;;
77868;SDS011;67231;59.144;37.934;2023-07-09T14:28:36;2.88;;;1.30;;
77868;SDS011;67231;59.144;37.934;2023-07-09T14:31:09;2.28;;;1.30;;
77868;SDS011;67231;59.144;37.934;2023-07-09T14:33:44;2.83;;;1.77;;
77868;SDS011;67231;59.144;37.934;2023-07-09T14:36:10;3.83;;;1.33;;
77868;SDS011;67231;59.144;37.934;2023-07-09T14:38:36;2.80;;;1.48;;
77868;SDS011;67231;59.144;37.934;2023-07-09T14:41:04;3.67;;;1.20;;
77868;SDS011;67231;59.144;37.934;2023-07-09T14:46:10;2.63;;;1.40;;
77868;SDS011;67231;59.144;37.934;2023-07-09T14:48:36;3.00;;;1.23;;
77868;SDS011;67231;59.144;37.934;2023-07-09T14:51:07;2.90;;;1.50;;
77868;SDS011;67231;59.144;37.934;2023-07-09T14:53:44;3.30;;;1.30;;
77868;SDS011;67231;59.144;37.934;2023-07-09T14:56:11;4.75;;;1.77;;
77868;SDS011;67231;59.144;37.934;2023-07-09T14:58:39;3.03;;;1.30;;
77868;SDS011;67231;59.144;37.934;2023-07-09T15:01:09;5.35;;;1.55;;
77868;SDS011;67231;59.144;37.934;2023-07-09T15:03:38;2.38;;;1.20;;
77868;SDS011;67231;59.144;37.934;2023-07-09T15:06:04;2.42;;;1.20;;
77868;SDS011;67231;59.144;37.934;2023-07-09T15:08:31;2.15;;;1.08;;
77868;SDS011;67231;59.144;37.934;2023-07-09T15:10:57;2.58;;;1.00;;
77868;SDS011;67231;59.144;37.934;2023-07-09T15:15:50;2.47;;;1.20;;
77868;SDS011;67231;59.144;37.934;2023-07-09T15:18:16;1.27;;;0.90;;
77868;SDS011;67231;59.144;37.934;2023-07-09T15:20:47;1.77;;;1.10;;
77868;SDS011;67231;59.144;37.934;2023-07-09T15:23:16;4.75;;;1.30;;
77868;SDS011;67231;59.144;37.934;2023-07-09T15:25:44;5.20;;;2.15;;
77868;SDS011;67231;59.144;37.934;2023-07-09T15:28:10;2.92;;;1.80;;
77868;SDS011;67231;59.144;37.934;2023-07-09T15:30:37;4.30;;;2.65;;
77868;SDS011;67231;59.144;37.934;2023-07-09T15:33:04;4.53;;;2.72;;
77868;SDS011;67231;59.144;37.934;2023-07-09T15:35:32;3.15;;;1.95;;
77868;SDS011;67231;59.144;37.934;2023-07-09T15:38:00;2.38;;;1.40;;
77868;SDS011;67231;59.144;37.934;2023-07-09T15:40:38;4.85;;;2.40;;
77868;SDS011;67231;59.144;37.934;2023-07-09T15:43:05;6.45;;;2.38;;
77868;SDS011;67231;59.144;37.934;2023-07-09T15:45:41;4.38;;;2.53;;
77868;SDS011;67231;59.144;37.934;2023-07-09T15:48:52;6.10;;;2.75;;